createdAt,value
2022-10-03T00:01:51.121Z,1.22
2022-10-03T00:04:39.233Z,1.11
2022-10-03T00:07:33.866Z,1.12
2022-10-03T00:10:21.798Z,1.07
2022-10-03T00:13:11.791Z,1.27
2022-10-03T00:16:03.171Z,1.42
2022-10-03T00:18:48.593Z,1.05
2022-10-03T00:21:39.770Z,1.01
2022-10-03T00:24:28.442Z,1.10
2022-10-03T00:27:25.612Z,1.03
2022-10-03T00:30:04.322Z,1.00
2022-10-03T00:32:45.682Z,1.15
2022-10-03T00:35:59.525Z,1.05
2022-10-03T00:38:44.877Z,1.14
2022-10-03T00:41:39.163Z,1.19
2022-10-03T00:44:27.890Z,0.93
2022-10-03T00:47:16.006Z,0.95
2022-10-03T00:49:56.822Z,0.89
2022-10-03T00:52:43.080Z,0.86
2022-10-03T00:55:25.293Z,0.91
2022-10-03T00:57:54.457Z,0.92
2022-10-03T01:00:25.781Z,0.95
2022-10-03T01:02:52.337Z,0.96
2022-10-03T01:05:26.976Z,1.07
2022-10-03T01:07:59.333Z,1.04
2022-10-03T01:10:50.190Z,0.99
2022-10-03T01:13:26.094Z,0.92
2022-10-03T01:16:10.997Z,0.86
2022-10-03T01:18:56.583Z,0.94
2022-10-03T01:21:40.773Z,0.92
2022-10-03T01:24:16.484Z,1.02
2022-10-03T01:26:58.311Z,0.89
2022-10-03T01:29:28.993Z,1.07
2022-10-03T01:32:24.998Z,0.96
2022-10-03T01:35:28.912Z,1.00
2022-10-03T01:38:26.651Z,0.87
2022-10-03T01:40:59.983Z,1.03
2022-10-03T01:43:49.529Z,1.04
2022-10-03T01:46:26.643Z,1.03
2022-10-03T01:49:02.266Z,1.00
2022-10-03T01:51:49.127Z,1.01
2022-10-03T01:54:22.242Z,0.98
2022-10-03T01:57:17.138Z,1.05
2022-10-03T02:00:03.981Z,1.18
2022-10-03T02:02:36.576Z,1.09
2022-10-03T02:05:12.162Z,1.15
2022-10-03T02:07:50.524Z,1.11
2022-10-03T02:10:29.616Z,0.97
2022-10-03T02:13:18.375Z,1.02
2022-10-03T02:16:00.984Z,1.08
2022-10-03T02:18:58.272Z,0.97
2022-10-03T02:21:29.925Z,0.96
2022-10-03T02:24:14.880Z,1.09
2022-10-03T02:27:15.351Z,1.02
2022-10-03T02:30:06.129Z,1.05
2022-10-03T02:33:09.581Z,1.06
2022-10-03T02:36:00.997Z,1.13
2022-10-03T02:38:59.884Z,1.08
2022-10-03T02:41:52.722Z,1.24
2022-10-03T02:44:25.055Z,1.01
2022-10-03T02:47:27.020Z,0.84
2022-10-03T02:50:27.644Z,0.94
2022-10-03T02:53:22.093Z,0.89
2022-10-03T02:56:09.016Z,0.86
2022-10-03T02:58:50.501Z,0.82
2022-10-03T03:01:38.765Z,0.76
2022-10-03T03:04:26.444Z,0.81
2022-10-03T03:07:11.779Z,0.87
2022-10-03T03:10:02.497Z,1.00
2022-10-03T03:12:55.734Z,0.83
2022-10-03T03:15:44.045Z,0.94
2022-10-03T03:18:19.396Z,0.90
2022-10-03T03:21:24.982Z,0.90
2022-10-03T03:24:12.421Z,0.95
2022-10-03T03:26:57.281Z,0.86
2022-10-03T03:30:03.121Z,0.94
2022-10-03T03:32:49.913Z,0.86
2022-10-03T03:35:34.763Z,0.99
2022-10-03T03:38:23.157Z,0.85
2022-10-03T03:41:13.479Z,1.11
2022-10-03T03:43:51.726Z,0.95
2022-10-03T03:46:59.821Z,1.08
2022-10-03T03:50:04.686Z,0.92
2022-10-03T03:52:36.931Z,1.02
2022-10-03T03:55:32.560Z,0.87
2022-10-03T03:58:59.549Z,0.93
2022-10-03T04:01:50.001Z,0.96
2022-10-03T04:04:55.319Z,0.82
2022-10-03T04:07:53.920Z,0.72
2022-10-03T04:10:35.452Z,0.82
2022-10-03T04:13:20.212Z,0.75
2022-10-03T04:16:05.245Z,0.74
2022-10-03T04:18:34.745Z,0.80
2022-10-03T04:21:08.983Z,0.73
2022-10-03T04:24:06.374Z,0.73
2022-10-03T04:27:10.407Z,0.77
2022-10-03T04:29:42.995Z,0.72
2022-10-03T04:32:40.471Z,0.74
2022-10-03T04:35:25.077Z,0.82
2022-10-03T04:38:20.857Z,0.85
2022-10-03T04:41:08.495Z,0.88
2022-10-03T04:43:54.680Z,0.95
2022-10-03T04:46:35.142Z,0.97
2022-10-03T04:49:26.211Z,0.92
2022-10-03T04:52:07.487Z,0.91
2022-10-03T04:54:47.839Z,0.86
2022-10-03T04:57:46.874Z,0.83
2022-10-03T05:00:28.052Z,1.00
2022-10-03T05:03:03.414Z,1.02
2022-10-03T05:06:24.981Z,1.23
2022-10-03T05:09:15.487Z,1.01
2022-10-03T05:11:51.021Z,0.93
2022-10-03T05:14:57.496Z,0.79
2022-10-03T05:17:36.237Z,0.95
2022-10-03T05:20:37.771Z,0.84
2022-10-03T05:23:24.341Z,0.99
2022-10-03T05:26:32.649Z,1.55
2022-10-03T05:28:56.858Z,1.36
2022-10-03T05:31:50.077Z,1.04
2022-10-03T05:34:47.789Z,0.87
2022-10-03T05:37:29.768Z,2.17
2022-10-03T05:40:18.582Z,1.62
2022-10-03T05:43:00.367Z,1.27
2022-10-03T05:45:47.482Z,1.23
2022-10-03T05:48:32.611Z,1.02
2022-10-03T05:51:26.982Z,0.80
2022-10-03T05:54:28.956Z,0.72
2022-10-03T05:57:36.580Z,0.84
2022-10-03T06:00:11.446Z,0.73
2022-10-03T06:02:53.508Z,0.81
2022-10-03T06:05:38.652Z,0.77
2022-10-03T06:08:46.922Z,0.84
2022-10-03T06:11:41.099Z,0.89
2022-10-03T06:14:41.867Z,0.82
2022-10-03T06:17:26.811Z,0.89
2022-10-03T06:20:17.901Z,0.82
2022-10-03T06:23:03.595Z,1.11
2022-10-03T06:26:02.676Z,1.01
2022-10-03T06:28:53.270Z,1.11
2022-10-03T06:31:38.680Z,1.21
2022-10-03T06:34:52.970Z,1.23
2022-10-03T06:37:53.155Z,1.31
2022-10-03T06:40:54.843Z,1.11
2022-10-03T06:43:39.901Z,1.17
2022-10-03T06:46:24.986Z,1.09
2022-10-03T06:49:25.330Z,1.10
2022-10-03T06:52:41.828Z,1.23
2022-10-03T06:55:40.531Z,1.29
2022-10-03T06:58:38.728Z,1.25
2022-10-03T07:01:43.302Z,1.29
2022-10-03T07:04:22.111Z,1.36
2022-10-03T07:07:10.432Z,1.42
2022-10-03T07:10:04.844Z,1.19
2022-10-03T07:12:53.149Z,1.33
2022-10-03T07:16:25.885Z,1.32
2022-10-03T07:19:20.727Z,1.45
2022-10-03T07:22:16.168Z,1.59
2022-10-03T07:25:00.946Z,1.66
2022-10-03T07:27:52.476Z,1.62
2022-10-03T07:30:23.583Z,2.01
2022-10-03T07:33:08.382Z,1.87
2022-10-03T07:35:45.378Z,1.85
2022-10-03T07:38:18.102Z,1.40
2022-10-03T07:41:05.877Z,1.39
2022-10-03T07:43:48.625Z,0.88
2022-10-03T07:46:18.094Z,0.84
2022-10-03T07:48:53.671Z,0.68
2022-10-03T07:51:38.935Z,0.78
2022-10-03T07:54:17.592Z,0.87
2022-10-03T07:57:08.302Z,0.85
2022-10-03T07:59:45.102Z,0.93
2022-10-03T08:02:30.363Z,1.00
2022-10-03T08:05:30.687Z,1.02
2022-10-03T08:08:27.992Z,1.13
2022-10-03T08:11:26.679Z,1.01
2022-10-03T08:14:24.201Z,0.93
2022-10-03T08:17:16.401Z,0.96
2022-10-03T08:20:13.836Z,1.04
2022-10-03T08:23:07.665Z,1.05
2022-10-03T08:25:53.555Z,1.10
2022-10-03T08:28:35.189Z,0.94
2022-10-03T08:31:16.854Z,0.95
2022-10-03T08:33:49.454Z,0.92
2022-10-03T08:36:49.660Z,1.14
2022-10-03T08:39:32.586Z,1.10
2022-10-03T08:42:29.871Z,1.03
2022-10-03T08:45:37.286Z,1.03
2022-10-03T08:48:06.956Z,1.37
2022-10-03T08:50:52.406Z,1.37
2022-10-03T08:53:50.847Z,1.22
2022-10-03T08:56:42.537Z,1.14
2022-10-03T08:59:46.448Z,1.06
2022-10-03T09:02:32.726Z,1.02
2022-10-03T09:05:18.398Z,1.06
2022-10-03T09:08:03.346Z,1.28
2022-10-03T09:10:39.635Z,1.13
2022-10-03T09:13:06.441Z,1.11
2022-10-03T09:16:13.729Z,1.09
2022-10-03T09:19:01.033Z,1.02
2022-10-03T09:21:39.791Z,0.92
2022-10-03T09:24:48.402Z,0.91
2022-10-03T09:27:54.945Z,1.00
2022-10-03T09:30:24.283Z,1.25
2022-10-03T09:33:05.913Z,0.97
2022-10-03T09:35:51.283Z,1.01
2022-10-03T09:38:48.693Z,0.97
2022-10-03T09:41:30.431Z,1.22
2022-10-03T09:44:34.263Z,1.25
2022-10-03T09:47:19.655Z,1.24
2022-10-03T09:50:24.143Z,1.22
2022-10-03T09:53:15.231Z,1.26
2022-10-03T09:55:53.926Z,1.02
2022-10-03T09:58:58.107Z,1.05
2022-10-03T10:01:42.824Z,1.09
2022-10-03T10:04:55.659Z,1.04
2022-10-03T10:07:42.078Z,1.24
2022-10-03T10:10:32.566Z,1.27
2022-10-03T10:13:14.358Z,1.18
2022-10-03T10:16:18.620Z,1.17
2022-10-03T10:19:04.470Z,1.28
2022-10-03T10:21:46.378Z,1.17
2022-10-03T10:24:34.648Z,1.32
2022-10-03T10:27:20.217Z,1.38
2022-10-03T10:30:09.529Z,1.44
2022-10-03T10:33:06.234Z,1.60
2022-10-03T10:36:10.491Z,1.39
2022-10-03T10:39:02.566Z,1.58
2022-10-03T10:41:41.748Z,1.37
2022-10-03T10:44:39.912Z,1.47
2022-10-03T10:47:41.458Z,1.44
2022-10-03T10:51:03.085Z,1.39
2022-10-03T10:53:57.493Z,1.39
2022-10-03T10:56:59.009Z,1.31
2022-10-03T10:59:53.389Z,1.23
2022-10-03T11:02:57.495Z,1.13
2022-10-03T11:06:05.572Z,1.18
2022-10-03T11:09:16.106Z,1.20
2022-10-03T11:12:18.041Z,1.01
2022-10-03T11:15:03.405Z,1.06
2022-10-03T11:18:06.999Z,0.98
2022-10-03T11:21:07.169Z,1.18
2022-10-03T11:23:33.697Z,0.90
2022-10-03T11:26:41.834Z,0.96
2022-10-03T11:29:34.848Z,0.95
2022-10-03T11:32:49.603Z,0.86
2022-10-03T11:36:07.160Z,0.74
2022-10-03T11:38:55.435Z,0.85
2022-10-03T11:41:30.957Z,0.89
2022-10-03T11:44:17.355Z,0.82
2022-10-03T11:47:05.334Z,0.95
2022-10-03T11:49:44.138Z,0.83
2022-10-03T11:52:28.836Z,1.02
2022-10-03T11:55:32.859Z,0.89
2022-10-03T11:58:28.277Z,0.85
2022-10-03T12:01:26.674Z,0.82
2022-10-03T12:03:57.325Z,0.89
2022-10-03T12:07:02.887Z,0.75
2022-10-03T12:09:54.278Z,1.03
2022-10-03T12:12:30.324Z,0.89
2022-10-03T12:15:23.511Z,1.00
2022-10-03T12:18:28.673Z,1.01
2022-10-03T12:21:21.067Z,1.03
2022-10-03T12:24:23.437Z,0.96
2022-10-03T12:27:10.229Z,1.14
2022-10-03T12:29:42.176Z,1.19
2022-10-03T12:32:54.060Z,1.02
2022-10-03T12:35:47.276Z,1.01
2022-10-03T12:38:24.595Z,1.00
2022-10-03T12:41:06.333Z,0.95
2022-10-03T12:44:00.822Z,1.01
2022-10-03T12:47:05.598Z,0.81
2022-10-03T12:49:49.746Z,0.87
2022-10-03T12:52:28.269Z,0.92
2022-10-03T12:55:25.066Z,0.76
2022-10-03T12:58:00.396Z,0.68
2022-10-03T13:01:13.094Z,0.85
2022-10-03T13:03:53.897Z,0.79
2022-10-03T13:06:51.060Z,0.74
2022-10-03T13:09:28.439Z,0.64
2022-10-03T13:12:04.746Z,0.78
2022-10-03T13:14:31.351Z,0.78
2022-10-03T13:17:03.612Z,0.76
2022-10-03T13:20:02.234Z,0.70
2022-10-03T13:22:28.868Z,0.64
2022-10-03T13:25:21.410Z,0.60
2022-10-03T13:28:01.969Z,0.61
2022-10-03T13:30:45.340Z,0.65
2022-10-03T13:33:17.333Z,0.70
2022-10-03T13:35:52.362Z,0.80
2022-10-03T13:38:34.534Z,0.84
2022-10-03T13:41:17.079Z,0.83
2022-10-03T13:43:51.715Z,0.80
2022-10-03T13:46:32.780Z,0.98
2022-10-03T13:49:12.623Z,0.87
2022-10-03T13:51:53.180Z,1.05
2022-10-03T13:55:01.578Z,0.93
2022-10-03T13:57:38.866Z,1.24
2022-10-03T14:00:15.988Z,1.13
2022-10-03T14:03:08.579Z,1.23
2022-10-03T14:05:35.187Z,1.25
2022-10-03T14:08:04.731Z,1.13
2022-10-03T14:11:03.354Z,1.04
2022-10-03T14:13:54.541Z,1.17
2022-10-03T14:16:35.655Z,1.16
2022-10-03T14:19:14.332Z,1.25
2022-10-03T14:22:12.961Z,1.13
2022-10-03T14:24:54.574Z,1.14
2022-10-03T14:27:42.941Z,1.26
2022-10-03T14:30:15.871Z,1.34
2022-10-03T14:32:51.586Z,1.27
2022-10-03T14:35:45.641Z,1.28
2022-10-03T14:38:24.052Z,1.36
2022-10-03T14:41:03.697Z,1.37
2022-10-03T14:43:59.474Z,1.28
2022-10-03T14:46:31.836Z,1.43
2022-10-03T14:49:01.993Z,1.25
2022-10-03T14:51:42.391Z,1.42
2022-10-03T14:54:41.632Z,1.55
2022-10-03T14:57:43.630Z,1.41
2022-10-03T15:00:37.658Z,1.47
2022-10-03T15:03:16.934Z,1.29
2022-10-03T15:06:11.015Z,1.40
2022-10-03T15:08:47.165Z,1.47
2022-10-03T15:11:17.409Z,1.56
2022-10-03T15:13:52.490Z,1.52
2022-10-03T15:16:22.917Z,1.28
2022-10-03T15:18:54.604Z,1.29
2022-10-03T15:21:22.071Z,1.36
2022-10-03T15:23:57.320Z,1.63
2022-10-03T15:26:28.103Z,1.49
2022-10-03T15:28:58.341Z,1.53
2022-10-03T15:31:54.297Z,1.69
2022-10-03T15:34:28.551Z,1.50
2022-10-03T15:37:01.279Z,1.64
2022-10-03T15:39:36.788Z,1.56
2022-10-03T15:42:28.606Z,1.45
2022-10-03T15:45:07.089Z,1.48
2022-10-03T15:47:36.169Z,1.43
2022-10-03T15:50:16.181Z,1.29
2022-10-03T15:52:49.665Z,1.35
2022-10-03T15:55:23.821Z,1.53
2022-10-03T15:58:07.305Z,1.54
2022-10-03T16:00:43.238Z,1.51
2022-10-03T16:03:17.903Z,1.50
2022-10-03T16:06:12.820Z,1.46
2022-10-03T16:09:05.693Z,1.49
2022-10-03T16:12:00.903Z,3.11
2022-10-03T16:14:33.909Z,2.87
2022-10-03T16:17:17.905Z,2.86
2022-10-03T16:19:56.929Z,2.62
2022-10-03T16:22:47.566Z,4.04
2022-10-03T16:25:43.489Z,6.05
2022-10-03T16:28:20.777Z,2.55
2022-10-03T16:30:54.457Z,3.62
2022-10-03T16:33:50.571Z,2.38
2022-10-03T16:36:21.219Z,1.90
2022-10-03T16:38:59.844Z,2.16
2022-10-03T16:41:34.935Z,2.30
2022-10-03T16:44:04.892Z,2.29
2022-10-03T16:46:37.568Z,2.39
2022-10-03T16:49:22.128Z,2.47
2022-10-03T16:52:03.039Z,2.90
2022-10-03T16:54:35.282Z,3.58
2022-10-03T16:57:12.491Z,2.32
2022-10-03T16:59:47.795Z,2.26
2022-10-03T17:02:21.294Z,2.41
2022-10-03T17:04:53.859Z,2.23
2022-10-03T17:07:24.456Z,2.20
2022-10-03T17:09:59.266Z,2.71
2022-10-03T17:12:42.213Z,2.56
2022-10-03T17:15:21.532Z,2.59
2022-10-03T17:18:25.949Z,2.59
2022-10-03T17:21:17.458Z,2.42
2022-10-03T17:24:03.644Z,2.48
2022-10-03T17:26:37.312Z,2.52
2022-10-03T17:29:13.573Z,2.59
2022-10-03T17:31:58.948Z,2.50
2022-10-03T17:34:34.656Z,2.42
2022-10-03T17:37:19.922Z,2.78
2022-10-03T17:40:18.113Z,3.06
2022-10-03T17:42:54.849Z,2.94
2022-10-03T17:45:38.888Z,3.19
2022-10-03T17:48:22.582Z,3.06
2022-10-03T17:51:10.660Z,3.76
2022-10-03T17:53:39.045Z,3.43
2022-10-03T17:56:14.957Z,3.43
2022-10-03T17:58:51.639Z,3.37
2022-10-03T18:01:27.145Z,3.32
2022-10-03T18:03:58.485Z,3.48
2022-10-03T18:06:30.856Z,3.50
2022-10-03T18:08:58.787Z,3.74
2022-10-03T18:11:29.631Z,3.77
2022-10-03T18:14:08.392Z,3.47
2022-10-03T18:16:38.187Z,4.11
2022-10-03T18:19:34.681Z,3.81
2022-10-03T18:22:10.327Z,4.00
2022-10-03T18:24:55.134Z,4.27
2022-10-03T18:27:53.686Z,4.08
2022-10-03T18:30:33.564Z,3.84
2022-10-03T18:33:05.069Z,3.68
2022-10-03T18:35:36.893Z,3.44
2022-10-03T18:38:31.485Z,3.67
2022-10-03T18:41:00.297Z,3.79
2022-10-03T18:43:38.201Z,3.31
2022-10-03T18:46:19.988Z,3.70
2022-10-03T18:49:31.890Z,3.96
2022-10-03T18:52:10.612Z,3.90
2022-10-03T18:54:59.999Z,3.63
2022-10-03T18:57:38.060Z,3.63
2022-10-03T19:00:08.260Z,3.43
2022-10-03T19:02:48.171Z,3.99
2022-10-03T19:05:34.182Z,3.73
2022-10-03T19:08:09.786Z,3.41
2022-10-03T19:10:39.390Z,3.41
2022-10-03T19:13:24.339Z,3.59
2022-10-03T19:16:16.740Z,3.63
2022-10-03T19:18:57.717Z,3.59
2022-10-03T19:21:25.018Z,4.03
2022-10-03T19:24:02.414Z,3.67
2022-10-03T19:26:36.373Z,3.94
2022-10-03T19:29:36.143Z,3.49
2022-10-03T19:32:18.217Z,3.43
2022-10-03T19:34:47.991Z,3.68
2022-10-03T19:37:23.884Z,3.47
2022-10-03T19:39:50.575Z,3.46
2022-10-03T19:42:56.111Z,3.50
2022-10-03T19:45:22.955Z,3.39
2022-10-03T19:48:03.887Z,3.51
2022-10-03T19:50:37.882Z,3.48
2022-10-03T19:53:18.960Z,3.65
2022-10-03T19:55:52.586Z,3.30
2022-10-03T19:58:24.449Z,3.42
2022-10-03T20:01:00.233Z,3.64
2022-10-03T20:03:38.496Z,3.81
2022-10-03T20:06:29.663Z,3.75
2022-10-03T20:09:07.459Z,3.76
2022-10-03T20:12:01.455Z,3.94
2022-10-03T20:14:41.734Z,3.83
2022-10-03T20:17:23.115Z,3.95
2022-10-03T20:20:07.059Z,3.97
2022-10-03T20:22:36.591Z,3.80
2022-10-03T20:25:29.747Z,4.12
2022-10-03T20:28:03.087Z,4.12
2022-10-03T20:30:47.122Z,4.30
2022-10-03T20:33:43.393Z,4.06
2022-10-03T20:36:18.604Z,4.44
2022-10-03T20:38:57.357Z,4.33
2022-10-03T20:42:05.409Z,4.53
2022-10-03T20:44:38.019Z,4.52
2022-10-03T20:47:17.234Z,4.55
2022-10-03T20:49:55.697Z,4.51
2022-10-03T20:52:25.795Z,4.69
2022-10-03T20:54:58.788Z,4.70
2022-10-03T20:57:47.594Z,4.76
2022-10-03T21:00:14.416Z,4.84
2022-10-03T21:02:56.217Z,4.87
2022-10-03T21:05:34.525Z,4.89
2022-10-03T21:08:04.113Z,5.05
2022-10-03T21:10:39.509Z,5.23
2022-10-03T21:13:18.452Z,5.08
2022-10-03T21:15:52.125Z,5.29
2022-10-03T21:18:30.729Z,5.01
2022-10-03T21:21:06.337Z,5.28
2022-10-03T21:23:41.468Z,5.15
2022-10-03T21:26:11.027Z,5.46
2022-10-03T21:28:38.421Z,5.14
2022-10-03T21:31:26.365Z,5.44
2022-10-03T21:34:14.951Z,6.49
2022-10-03T21:36:44.562Z,4.55
2022-10-03T21:39:54.495Z,6.59
2022-10-03T21:42:21.082Z,5.63
2022-10-03T21:45:01.092Z,3.95
2022-10-03T21:47:33.651Z,3.65
2022-10-03T21:50:06.147Z,4.57
2022-10-03T21:52:51.254Z,3.99
2022-10-03T21:55:52.765Z,3.93
2022-10-03T21:58:50.265Z,5.06
2022-10-03T22:01:30.479Z,4.83
2022-10-03T22:04:12.182Z,5.14
2022-10-03T22:06:51.931Z,4.54
2022-10-03T22:09:18.803Z,4.24
2022-10-03T22:11:48.561Z,4.51
2022-10-03T22:14:45.591Z,4.15
2022-10-03T22:17:39.368Z,4.58
2022-10-03T22:20:14.922Z,4.37
2022-10-03T22:23:06.638Z,3.96
2022-10-03T22:25:47.323Z,4.19
2022-10-03T22:28:45.835Z,4.58
2022-10-03T22:31:39.292Z,4.78
2022-10-03T22:34:47.457Z,4.60
2022-10-03T22:37:14.928Z,4.35
2022-10-03T22:39:42.643Z,4.01
2022-10-03T22:42:14.877Z,4.44
2022-10-03T22:44:47.855Z,4.62
2022-10-03T22:47:23.585Z,3.95
2022-10-03T22:49:55.699Z,4.52
2022-10-03T22:52:28.249Z,4.25
2022-10-03T22:54:57.120Z,4.20
2022-10-03T22:57:25.670Z,3.96
2022-10-03T23:00:08.453Z,4.09
2022-10-03T23:02:42.117Z,4.19
2022-10-03T23:05:47.517Z,4.04
2022-10-03T23:08:33.353Z,3.81
2022-10-03T23:11:21.224Z,3.99
2022-10-03T23:13:48.880Z,3.76
2022-10-03T23:16:38.370Z,3.86
2022-10-03T23:19:22.977Z,3.55
2022-10-03T23:21:52.440Z,3.67
2022-10-03T23:24:42.488Z,3.57
2022-10-03T23:27:42.090Z,3.23
2022-10-03T23:30:11.784Z,3.35
2022-10-03T23:32:47.559Z,3.44
2022-10-03T23:35:39.981Z,3.52
2022-10-03T23:38:31.354Z,3.18
2022-10-03T23:41:02.925Z,3.13
2022-10-03T23:43:36.176Z,2.93
2022-10-03T23:46:08.835Z,3.05
2022-10-03T23:48:49.517Z,3.13
2022-10-03T23:51:23.581Z,3.34
2022-10-03T23:53:55.018Z,3.31
2022-10-03T23:56:21.684Z,3.23
2022-10-03T23:59:16.286Z,3.37
